Time;durP1;ratioP1;P1;durP2;ratioP2;P2;SDS_P1;SDS_P2;PMS_P1;PMS_P2;Temp;Humidity;BMP_temperature;BMP_pressure;BME280_temperature;BME280_humidity;BME280_pressure;Samples;Min_cycle;Max_cycle;Signal;HPM_P1;HPM_P2
2022/12/27 00:00:48;;;;;;;;;;;;;;;15.52;53.11;101519.50;5096918;28;1118;-48
2022/12/27 00:03:14;;;;;;;;;;;;;;;15.50;53.44;101515.34;5096259;28;1162;-48
2022/12/27 00:05:43;;;;;;;;;;;;;;;17.12;49.29;101515.41;5096543;28;1030;-45
2022/12/27 00:08:08;;;;;;;;;;;;;;;16.42;50.72;101514.03;5096704;28;1914;-48
2022/12/27 00:10:34;;;;;;;;;;;;;;;15.86;52.28;101513.22;5096788;28;1110;-48
2022/12/27 00:12:59;;;;;;;;;;;;;;;15.63;52.88;101506.81;5095853;28;1090;-46
2022/12/27 00:15:25;;;;;;;;;;;;;;;15.40;53.18;101511.38;5097216;28;1142;-47
2022/12/27 00:17:50;;;;;;;;;;;;;;;16.69;50.28;101505.03;5083243;28;1197;-47
2022/12/27 00:20:16;;;;;;;;;;;;;;;16.92;49.34;101503.09;5096432;28;882;-48
2022/12/27 00:22:41;;;;;;;;;;;;;;;16.04;51.77;101510.19;5096880;28;1125;-47
2022/12/27 00:25:07;;;;;;;;;;;;;;;15.70;52.55;101503.91;5096171;28;1229;-44
2022/12/27 00:27:33;;;;;;;;;;;;;;;15.51;53.10;101500.56;5096434;28;1905;-42
2022/12/27 00:29:59;;;;;;;;;;;;;;;16.04;51.88;101504.69;5096673;28;1042;-45
2022/12/27 00:32:25;;;;;;;;;;;;;;;17.26;48.64;101502.88;5096203;28;998;-46
2022/12/27 00:34:50;;;;;;;;;;;;;;;16.13;51.26;101504.28;5096402;28;1101;-48
2022/12/27 00:37:16;;;;;;;;;;;;;;;15.74;52.56;101500.41;5096366;28;1082;-47
2022/12/27 00:39:41;;;;;;;;;;;;;;;15.56;52.72;101487.78;5095999;28;1170;-47
2022/12/27 00:42:07;;;;;;;;;;;;;;;16.56;50.35;101495.25;5096067;28;1050;-43
2022/12/27 00:44:32;;;;;;;;;;;;;;;16.86;49.58;101493.13;5096230;28;908;-47
2022/12/27 00:46:58;;;;;;;;;;;;;;;15.98;51.89;101492.00;5095917;28;1978;-46
2022/12/27 00:49:23;;;;;;;;;;;;;;;15.68;52.41;101487.69;5096269;28;1058;-43
2022/12/27 00:51:49;;;;;;;;;;;;;;;15.47;53.21;101480.22;5096747;28;1090;-44
2022/12/27 00:54:14;;;;;;;;;;;;;;;16.02;51.98;101479.44;5095706;28;1403;-45
2022/12/27 00:56:40;;;;;;;;;;;;;;;17.23;48.64;101476.75;5095574;28;903;-46
2022/12/27 00:59:05;;;;;;;;;;;;;;;16.13;51.16;101474.94;5096284;28;1150;-47
2022/12/27 01:01:32;;;;;;;;;;;;;;;15.68;52.73;101471.25;5096011;28;1142;-47
2022/12/27 01:03:57;;;;;;;;;;;;;;;15.50;52.78;101460.53;5095802;28;1233;-48
2022/12/27 01:06:24;;;;;;;;;;;;;;;16.03;52.04;101470.16;5095529;28;1901;-46
2022/12/27 01:08:50;;;;;;;;;;;;;;;17.38;48.25;101462.31;5095911;28;868;-48
2022/12/27 01:11:15;;;;;;;;;;;;;;;16.35;50.70;101466.69;5098411;28;1062;-48
2022/12/27 01:13:41;;;;;;;;;;;;;;;15.86;52.10;101474.81;5099919;28;1117;-48
2022/12/27 01:16:07;;;;;;;;;;;;;;;15.60;52.83;101466.19;5098960;28;1150;-46
2022/12/27 01:18:33;;;;;;;;;;;;;;;15.42;52.96;101458.19;5099101;28;1050;-47
2022/12/27 01:20:58;;;;;;;;;;;;;;;15.33;53.45;101455.88;5096669;28;1476;-46
2022/12/27 01:23:25;;;;;;;;;;;;;;;16.96;49.31;101463.03;5099654;28;1046;-46
2022/12/27 01:25:57;;;;;;;;;;;;;;;16.77;49.72;101455.13;5099670;28;1153;-47
2022/12/27 01:28:23;;;;;;;;;;;;;;;15.96;51.65;101442.03;5099766;28;1984;-48
2022/12/27 01:30:48;;;;;;;;;;;;;;;15.66;52.37;101453.38;5099808;28;1148;-47
2022/12/27 01:33:13;;;;;;;;;;;;;;;15.39;53.11;101435.69;5099302;28;879;-49
2022/12/27 01:35:39;;;;;;;;;;;;;;;15.88;52.37;101434.28;5099361;28;1113;-44
2022/12/27 01:38:04;;;;;;;;;;;;;;;17.30;48.63;101429.00;5099414;28;1168;-49
2022/12/27 01:40:30;;;;;;;;;;;;;;;16.40;50.47;101438.50;5099277;28;1173;-46
2022/12/27 01:42:55;;;;;;;;;;;;;;;15.84;51.91;101439.41;5099710;28;1216;-48
2022/12/27 01:45:27;;;;;;;;;;;;;;;15.55;52.71;101439.50;5097709;28;873;-44
2022/12/27 01:47:53;;;;;;;;;;;;;;;16.55;50.54;101441.44;5098845;28;1917;-44
2022/12/27 01:50:21;;;;;;;;;;;;;;;17.05;48.86;101442.22;5098828;28;1173;-48
2022/12/27 01:52:47;;;;;;;;;;;;;;;16.12;51.30;101436.75;5098985;28;1126;-48
2022/12/27 01:55:18;;;;;;;;;;;;;;;15.77;52.27;101429.66;5098444;28;1094;-47
2022/12/27 01:57:43;;;;;;;;;;;;;;;15.51;52.56;101419.16;5098047;28;1118;-46
2022/12/27 02:00:09;;;;;;;;;;;;;;;16.62;50.44;101422.00;5098711;28;1093;-47
2022/12/27 02:02:34;;;;;;;;;;;;;;;17.02;48.94;101420.78;5098866;28;1046;-48
2022/12/27 02:05:00;;;;;;;;;;;;;;;16.12;51.50;101417.56;5098479;28;1181;-48
2022/12/27 02:07:26;;;;;;;;;;;;;;;15.76;52.06;101412.41;5097309;28;1909;-49
2022/12/27 02:09:54;;;;;;;;;;;;;;;15.53;52.62;101406.03;5098395;28;1066;-45
2022/12/27 02:12:19;;;;;;;;;;;;;;;15.37;52.92;101412.34;5097405;28;1038;-47
2022/12/27 02:14:45;;;;;;;;;;;;;;;16.88;49.73;101408.53;5097601;28;1198;-49
2022/12/27 02:17:12;;;;;;;;;;;;;;;16.75;49.58;101413.34;5098526;28;1181;-48
2022/12/27 02:19:40;;;;;;;;;;;;;;;16.00;51.48;101415.75;5096877;28;1154;-49
2022/12/27 02:22:29;;;;;;;;;;;;;;;15.66;52.37;101418.56;5098319;28;1061;-48
2022/12/27 02:24:55;;;;;;;;;;;;;;;16.51;50.56;101409.25;5097124;28;1059;-42
2022/12/27 02:27:20;;;;;;;;;;;;;;;16.72;49.60;101405.63;5098767;28;1914;-49
2022/12/27 02:29:51;;;;;;;;;;;;;;;15.98;51.72;101409.72;5098415;28;1015;-46
2022/12/27 02:32:26;;;;;;;;;;;;;;;15.67;52.48;101402.94;5098213;28;1038;-48
2022/12/27 02:35:14;;;;;;;;;;;;;;;15.43;52.99;101394.09;5097489;28;1099;-47
2022/12/27 02:38:00;;;;;;;;;;;;;;;16.62;50.33;101396.47;5079229;28;1222;-47
2022/12/27 02:54:34;;;;;;;;;;;;;;;16.56;49.86;101399.16;5097319;28;1111;-47
2022/12/27 02:57:09;;;;;;;;;;;;;;;15.89;51.88;101406.59;5090138;28;1119;-47
2022/12/27 03:06:38;;;;;;;;;;;;;;;17.41;47.98;101384.81;5097730;28;1487;-47
2022/12/27 03:08:34;;;;;;;;;;;;;;;16.23;50.68;101379.03;5083741;28;1909;-48
2022/12/27 03:16:29;;;;;;;;;;;;;;;15.53;52.97;101384.13;5096311;28;1091;-46
2022/12/27 03:18:57;;;;;;;;;;;;;;;17.13;48.74;101376.91;5097802;28;1037;-47
2022/12/27 03:27:00;;;;;;;;;;;;;;;15.49;52.57;101373.91;5097803;28;1965;-45
2022/12/27 03:34:54;;;;;;;;;;;;;;;16.01;51.34;101373.53;5095926;28;1191;-45
2022/12/27 03:40:11;;;;;;;;;;;;;;;16.96;49.06;101366.88;5096278;28;1046;-46
2022/12/27 03:46:32;;;;;;;;;;;;;;;15.98;51.49;101367.75;5096323;28;1049;-48
2022/12/27 03:48:08;;;;;;;;;;;;;;;15.64;52.32;101367.81;5097057;28;1913;-48
2022/12/27 03:50:35;;;;;;;;;;;;;;;16.32;50.74;101368.41;5095701;28;1105;-44
2022/12/27 03:53:02;;;;;;;;;;;;;;;17.21;48.33;101374.50;5096981;28;1180;-47
2022/12/27 03:55:28;;;;;;;;;;;;;;;16.21;50.88;101366.66;5095424;28;1147;-48
2022/12/27 03:57:53;;;;;;;;;;;;;;;15.74;51.87;101363.28;5095913;28;877;-46
2022/12/27 04:00:18;;;;;;;;;;;;;;;15.59;52.44;101360.34;5095581;28;1162;-49
2022/12/27 04:02:44;;;;;;;;;;;;;;;17.13;48.80;101349.44;5096988;28;1106;-44
2022/12/27 04:05:10;;;;;;;;;;;;;;;16.55;50.07;101350.84;5096322;28;1124;-44
2022/12/27 04:07:35;;;;;;;;;;;;;;;15.94;51.47;101348.22;5096388;28;1905;-49
2022/12/27 04:34:42;;;;;;;;;;;;;;;16.21;50.62;101336.47;5086045;28;2051;-49
2022/12/27 04:37:08;;;;;;;;;;;;;;;15.84;51.85;101343.44;5094918;28;1848;-48
2022/12/27 04:39:34;;;;;;;;;;;;;;;16.28;50.91;101339.81;5095890;28;1862;-52
2022/12/27 04:56:00;;;;;;;;;;;;;;;16.04;51.31;101345.59;5099815;28;1015;-55
2022/12/27 04:58:26;;;;;;;;;;;;;;;15.78;51.82;101351.81;5099569;28;1018;-56
2022/12/27 05:03:35;;;;;;;;;;;;;;;16.05;51.33;101347.25;5099621;28;1090;-53
2022/12/27 05:06:00;;;;;;;;;;;;;;;17.41;47.90;101349.06;5100006;28;1118;-52
2022/12/27 05:14:00;;;;;;;;;;;;;;;15.61;52.00;101351.88;5091451;28;2852;-48
2022/12/27 05:16:26;;;;;;;;;;;;;;;16.25;50.86;101341.16;5099532;28;994;-48
2022/12/27 05:18:51;;;;;;;;;;;;;;;17.47;47.73;101343.63;5099679;28;1099;-51
2022/12/27 05:21:17;;;;;;;;;;;;;;;16.37;50.26;101349.28;5099092;28;1038;-50
2022/12/27 05:26:27;;;;;;;;;;;;;;;15.64;51.88;101349.47;5086113;28;1905;-49
2022/12/27 05:28:53;;;;;;;;;;;;;;;15.88;51.72;101341.03;5098810;28;927;-50
2022/12/27 05:31:19;;;;;;;;;;;;;;;17.40;47.89;101336.44;5099037;28;1111;-50
2022/12/27 05:33:44;;;;;;;;;;;;;;;16.45;50.10;101339.72;5098442;28;1446;-49
2022/12/27 05:36:09;;;;;;;;;;;;;;;15.95;51.15;101349.88;5098690;28;1285;-51
2022/12/27 05:38:35;;;;;;;;;;;;;;;15.70;51.98;101356.66;5098982;28;1297;-47
2022/12/27 05:41:00;;;;;;;;;;;;;;;17.24;48.33;101345.66;5097296;28;1253;-50
2022/12/27 05:43:26;;;;;;;;;;;;;;;16.42;50.04;101345.75;5095448;28;2406;-49
2022/12/27 05:45:51;;;;;;;;;;;;;;;15.90;51.42;101347.88;5097121;28;1197;-50
2022/12/27 05:48:17;;;;;;;;;;;;;;;15.63;52.09;101353.28;5096979;28;1914;-49
2022/12/27 05:50:42;;;;;;;;;;;;;;;15.43;52.31;101353.81;5097237;28;1205;-48
2022/12/27 05:53:10;;;;;;;;;;;;;;;16.95;48.97;101343.25;5097207;28;1241;-48
2022/12/27 05:55:36;;;;;;;;;;;;;;;16.77;49.23;101348.03;5096770;28;1300;-50
2022/12/27 05:58:01;;;;;;;;;;;;;;;16.02;51.09;101331.31;5094657;28;1331;-48
2022/12/27 06:00:27;;;;;;;;;;;;;;;15.68;51.91;101338.78;5097259;28;1150;-48
2022/12/27 06:02:52;;;;;;;;;;;;;;;15.53;52.41;101333.97;5097505;28;1225;-50
2022/12/27 06:05:18;;;;;;;;;;;;;;;17.12;48.64;101331.28;5096883;28;1182;-48
2022/12/27 06:07:43;;;;;;;;;;;;;;;16.56;49.55;101332.44;5097277;28;1906;-50
2022/12/27 06:10:09;;;;;;;;;;;;;;;15.96;51.29;101326.84;5096552;28;1214;-49
2022/12/27 06:12:34;;;;;;;;;;;;;;;15.70;51.76;101333.91;5093551;28;2347;-48
2022/12/27 06:15:00;;;;;;;;;;;;;;;15.49;52.39;101335.53;5096962;28;1301;-50
2022/12/27 06:17:25;;;;;;;;;;;;;;;17.06;48.60;101339.47;5097032;28;1206;-50
2022/12/27 06:19:50;;;;;;;;;;;;;;;16.62;49.60;101336.91;5097005;28;1289;-50
2022/12/27 06:22:16;;;;;;;;;;;;;;;16.01;51.24;101337.88;5096560;28;1257;-45
2022/12/27 06:24:41;;;;;;;;;;;;;;;15.79;51.82;101337.88;5096658;28;1233;-48
2022/12/27 06:27:07;;;;;;;;;;;;;;;17.21;47.84;101337.97;5096635;28;1988;-51
2022/12/27 06:29:33;;;;;;;;;;;;;;;16.81;49.40;101344.75;5096648;28;1225;-47
2022/12/27 06:31:58;;;;;;;;;;;;;;;18.32;45.43;101337.94;5096786;28;1376;-47
2022/12/27 06:34:24;;;;;;;;;;;;;;;17.28;47.62;101338.56;5096352;28;1217;-50
2022/12/27 06:36:50;;;;;;;;;;;;;;;16.68;49.32;101344.09;5096847;28;1217;-49
2022/12/27 06:39:16;;;;;;;;;;;;;;;18.37;45.32;101340.72;5054394;28;1202211;-49
2022/12/27 06:41:41;;;;;;;;;;;;;;;16.85;48.63;101351.38;5096773;28;1883;-49
2022/12/27 06:44:07;;;;;;;;;;;;;;;18.14;46.33;101342.03;5095534;28;1198;-49
2022/12/27 06:46:32;;;;;;;;;;;;;;;17.60;47.30;101349.47;5097628;28;1988;-50
2022/12/27 06:48:57;;;;;;;;;;;;;;;16.75;48.47;101346.63;5096996;28;1237;-50
2022/12/27 06:51:23;;;;;;;;;;;;;;;17.75;47.53;101350.63;5097208;28;1218;-50
2022/12/27 06:53:48;;;;;;;;;;;;;;;16.85;48.64;101343.13;5097394;28;1154;-47
2022/12/27 06:56:15;;;;;;;;;;;;;;;18.65;45.36;101349.59;5097426;28;1213;-51
2022/12/27 06:58:41;;;;;;;;;;;;;;;18.39;45.81;101354.22;5096772;28;1312;-51
2022/12/27 07:01:26;;;;;;;;;;;;;;;17.19;47.92;101348.38;5097595;28;1218;-50
2022/12/27 07:03:53;;;;;;;;;;;;;;;18.16;46.74;101345.34;5097167;28;1712;-55
2022/12/27 07:06:18;;;;;;;;;;;;;;;17.23;47.97;101341.25;5097871;28;1166;-48
2022/12/27 07:08:44;;;;;;;;;;;;;;;18.16;46.76;101344.50;5096010;28;1986;-50
2022/12/27 07:11:10;;;;;;;;;;;;;;;18.36;46.02;101343.75;5097226;28;886;-50
2022/12/27 07:13:36;;;;;;;;;;;;;;;17.16;47.66;101351.66;5095538;28;2530;-47
2022/12/27 07:16:05;;;;;;;;;;;;;;;18.01;47.40;101337.84;5097492;28;1011;-48
2022/12/27 07:18:31;;;;;;;;;;;;;;;17.44;47.70;101333.97;5096802;28;1105;-50
2022/12/27 07:20:56;;;;;;;;;;;;;;;17.24;48.49;101323.69;5097325;28;1137;-49
2022/12/27 07:23:21;;;;;;;;;;;;;;;18.62;45.36;101328.06;5096459;28;990;-48
2022/12/27 07:25:47;;;;;;;;;;;;;;;17.35;47.81;101330.06;5096682;28;1085;-50
2022/12/27 07:28:12;;;;;;;;;;;;;;;18.43;46.38;101338.81;5096682;28;1981;-48
2022/12/27 07:30:38;;;;;;;;;;;;;;;17.93;47.03;101336.44;5096559;28;1142;-49
2022/12/27 07:33:04;;;;;;;;;;;;;;;17.19;47.63;101329.13;5096819;28;1094;-46
2022/12/27 07:35:29;;;;;;;;;;;;;;;18.15;46.95;101331.84;5096464;28;898;-49
2022/12/27 07:37:55;;;;;;;;;;;;;;;17.81;47.39;101332.22;5096337;28;1031;-51
2022/12/27 07:40:20;;;;;;;;;;;;;;;17.05;48.37;101332.31;5096744;28;1123;-48
2022/12/27 07:42:47;;;;;;;;;;;;;;;18.80;45.11;101332.22;5095394;28;2658;-52
2022/12/27 07:45:12;;;;;;;;;;;;;;;17.43;47.80;101333.16;5096341;28;1010;-49
2022/12/27 07:47:37;;;;;;;;;;;;;;;17.01;47.67;101330.38;5096230;28;1968;-51
2022/12/27 07:50:03;;;;;;;;;;;;;;;18.41;46.71;101330.81;5096609;28;1131;-49
2022/12/27 07:52:28;;;;;;;;;;;;;;;17.35;47.90;101336.41;5096924;28;1104;-52
2022/12/27 07:54:54;;;;;;;;;;;;;;;17.93;47.65;101343.88;5096362;28;1221;-51
2022/12/27 07:57:19;;;;;;;;;;;;;;;18.19;46.75;101332.94;5096818;28;1208;-50
2022/12/27 07:59:45;;;;;;;;;;;;;;;17.32;47.71;101322.34;5096119;28;952;-50
2022/12/27 08:02:10;;;;;;;;;;;;;;;18.83;45.42;101334.44;5096685;28;1217;-50
2022/12/27 08:04:37;;;;;;;;;;;;;;;17.68;47.54;101339.88;5096688;28;1073;-48
2022/12/27 08:07:20;;;;;;;;;;;;;;;17.26;47.47;101332.47;5095708;28;1973;-48
2022/12/27 08:09:46;;;;;;;;;;;;;;;18.04;47.42;101339.25;5096887;28;1018;-44
2022/12/27 08:12:14;;;;;;;;;;;;;;;17.46;47.89;101340.03;5090798;28;1823;-48
2022/12/27 08:14:40;;;;;;;;;;;;;;;18.21;47.10;101336.28;5090006;28;1105;-49
2022/12/27 08:17:16;;;;;;;;;;;;;;;18.83;45.31;101333.59;5096670;28;1086;-49
2022/12/27 08:19:42;;;;;;;;;;;;;;;17.59;47.39;101336.00;5095728;28;1031;-51
2022/12/27 08:22:09;;;;;;;;;;;;;;;17.09;47.28;101321.66;5096172;28;1130;-49
2022/12/27 08:24:34;;;;;;;;;;;;;;;18.55;46.21;101338.53;5095901;28;1102;-49
2022/12/27 08:27:00;;;;;;;;;;;;;;;17.34;48.14;101342.97;5095948;28;1971;-51
2022/12/27 08:29:25;;;;;;;;;;;;;;;18.30;47.12;101329.16;5095715;28;1112;-48
2022/12/27 08:31:51;;;;;;;;;;;;;;;18.10;46.84;101329.91;5095966;28;1054;-48
2022/12/27 08:34:17;;;;;;;;;;;;;;;17.32;47.75;101330.59;5095716;28;1042;-47
2022/12/27 08:36:42;;;;;;;;;;;;;;;17.04;47.33;101338.09;5096173;28;983;-49
2022/12/27 08:39:07;;;;;;;;;;;;;;;17.26;47.74;101324.22;5095891;28;1030;-51
2022/12/27 08:41:33;;;;;;;;;;;;;;;17.86;47.58;101319.31;5095848;28;1058;-51
2022/12/27 08:43:58;;;;;;;;;;;;;;;17.06;48.14;101322.19;5094806;28;2620;-51
2022/12/27 08:46:24;;;;;;;;;;;;;;;18.42;46.89;101315.13;5095380;28;1213;-51
2022/12/27 08:48:49;;;;;;;;;;;;;;;17.48;48.00;101307.59;5095656;28;1975;-52
2022/12/27 08:51:15;;;;;;;;;;;;;;;17.08;47.82;101314.50;5095733;28;1213;-51
2022/12/27 08:53:40;;;;;;;;;;;;;;;18.40;46.86;101301.63;5095623;28;1206;-51
2022/12/27 08:56:06;;;;;;;;;;;;;;;17.31;47.98;101302.28;5095868;28;1285;-52
2022/12/27 08:58:31;;;;;;;;;;;;;;;17.01;48.63;101305.66;5095432;28;1209;-51
2022/12/27 09:01:02;;;;;;;;;;;;;;;17.97;47.28;101303.72;5095625;28;1245;-49
2022/12/27 09:03:28;;;;;;;;;;;;;;;17.13;48.23;101288.97;5095796;28;1178;-52
2022/12/27 09:05:53;;;;;;;;;;;;;;;16.82;47.66;101297.78;5095976;28;1270;-48
2022/12/27 09:08:19;;;;;;;;;;;;;;;17.48;48.00;101293.03;5095354;28;1898;-51
2022/12/27 09:10:45;;;;;;;;;;;;;;;17.36;48.56;101294.09;5095340;28;1170;-49
2022/12/27 09:13:10;;;;;;;;;;;;;;;18.07;47.51;101286.41;5092561;28;2329;-51
2022/12/27 09:15:36;;;;;;;;;;;;;;;19.28;44.73;101282.34;5095538;28;1237;-50
2022/12/27 09:18:02;;;;;;;;;;;;;;;17.71;47.64;101276.09;5095160;28;1222;-51
2022/12/27 09:20:27;;;;;;;;;;;;;;;17.21;47.43;101275.56;5095574;28;1249;-50
2022/12/27 09:22:52;;;;;;;;;;;;;;;18.22;47.18;101282.88;5095241;28;1285;-51
2022/12/27 09:25:18;;;;;;;;;;;;;;;17.22;48.15;101265.38;5095342;28;1170;-47
2022/12/27 09:27:43;;;;;;;;;;;;;;;18.59;46.62;101262.53;5095173;28;1905;-52
2022/12/27 09:30:09;;;;;;;;;;;;;;;18.26;46.79;101260.03;5095113;28;1309;-51
2022/12/27 09:32:34;;;;;;;;;;;;;;;17.41;47.85;101249.28;5098558;28;1300;-52
2022/12/27 09:35:00;;;;;;;;;;;;;;;17.51;48.03;101245.75;5099022;28;1245;-52
2022/12/27 09:37:26;;;;;;;;;;;;;;;17.72;48.01;101249.41;5098798;28;1202;-51
2022/12/27 09:39:51;;;;;;;;;;;;;;;17.08;48.19;101241.16;5098619;28;1296;-52
2022/12/27 09:42:22;;;;;;;;;;;;;;;17.33;48.28;101234.13;5096441;28;2217;-50
2022/12/27 09:44:58;;;;;;;;;;;;;;;17.53;48.04;101227.06;5099169;28;1213;-52
2022/12/27 09:47:27;;;;;;;;;;;;;;;16.94;48.07;101239.94;5097300;28;1909;-52
2022/12/27 09:49:54;;;;;;;;;;;;;;;18.43;46.60;101229.47;5097498;28;1207;-52
2022/12/27 09:52:21;;;;;;;;;;;;;;;17.26;48.10;101226.13;5098573;28;1285;-52
2022/12/27 09:54:50;;;;;;;;;;;;;;;18.17;47.56;101227.81;5098978;28;1249;-51
2022/12/27 09:57:34;;;;;;;;;;;;;;;17.91;47.65;101227.78;5098306;28;1194;-52
2022/12/27 10:00:00;;;;;;;;;;;;;;;17.46;48.69;101216.31;5095695;28;1190;-52
2022/12/27 10:02:26;;;;;;;;;;;;;;;18.97;45.23;101213.47;5097221;28;1234;-49
2022/12/27 10:04:52;;;;;;;;;;;;;;;17.63;47.74;101227.09;5097330;28;1288;-52
2022/12/27 10:07:23;;;;;;;;;;;;;;;17.22;47.64;101216.78;5098476;28;2259;-52
2022/12/27 10:09:51;;;;;;;;;;;;;;;18.26;47.11;101221.50;5097275;28;1226;-52
2022/12/27 10:12:37;;;;;;;;;;;;;;;17.35;47.88;101209.94;5093899;28;1601;-51
2022/12/27 10:15:10;;;;;;;;;;;;;;;17.97;47.79;101206.59;5097266;28;1032;-52
2022/12/27 10:17:44;;;;;;;;;;;;;;;17.76;47.85;101188.06;5096558;28;1262;-52
2022/12/27 10:20:22;;;;;;;;;;;;;;;17.19;47.83;101186.22;5097131;28;1163;-50
2022/12/27 10:23:01;;;;;;;;;;;;;;;18.42;46.81;101178.25;5098022;28;1237;-49
2022/12/27 10:25:27;;;;;;;;;;;;;;;17.27;48.38;101174.72;5096361;28;1230;-50
2022/12/27 10:28:08;;;;;;;;;;;;;;;17.38;48.37;101179.16;5096607;28;1913;-51
2022/12/27 10:30:34;;;;;;;;;;;;;;;17.73;48.08;101174.88;5097767;28;1209;-49
2022/12/27 10:32:59;;;;;;;;;;;;;;;17.17;48.12;101164.53;5097928;28;1197;-49
2022/12/27 10:35:25;;;;;;;;;;;;;;;18.51;46.74;101162.03;5096575;28;1226;-50
2022/12/27 10:37:52;;;;;;;;;;;;;;;17.57;48.16;101156.69;5096565;28;1245;-51
2022/12/27 10:40:27;;;;;;;;;;;;;;;17.13;47.81;101157.91;5097209;28;1276;-51
2022/12/27 10:42:58;;;;;;;;;;;;;;;18.10;47.35;101157.34;5095227;28;2257;-52
2022/12/27 10:45:25;;;;;;;;;;;;;;;17.26;48.19;101145.59;5095914;28;1225;-52
2022/12/27 10:47:51;;;;;;;;;;;;;;;16.90;48.13;101140.78;5096936;28;1980;-52
2022/12/27 10:50:16;;;;;;;;;;;;;;;18.17;47.39;101139.72;5097558;28;1327;-52
2022/12/27 10:52:42;;;;;;;;;;;;;;;17.25;48.36;101132.94;5097566;28;1022;-53
2022/12/27 10:55:19;;;;;;;;;;;;;;;16.98;48.00;101124.88;5097018;28;992;-53
2022/12/27 10:57:44;;;;;;;;;;;;;;;17.68;48.17;101119.84;5096724;28;1123;-53
2022/12/27 11:00:17;;;;;;;;;;;;;;;17.87;47.96;101116.59;5096586;28;1120;-48
2022/12/27 11:02:49;;;;;;;;;;;;;;;19.47;44.59;101109.63;5097754;28;1146;-51
2022/12/27 11:05:18;;;;;;;;;;;;;;;17.85;47.63;101110.53;5096956;28;994;-53
2022/12/27 11:07:44;;;;;;;;;;;;;;;17.33;47.60;101102.19;5097380;28;1909;-52
2022/12/27 11:10:32;;;;;;;;;;;;;;;18.04;47.90;101103.41;5096984;28;1086;-52
2022/12/27 11:13:01;;;;;;;;;;;;;;;17.51;48.03;101095.34;5088035;28;1914;-50
2022/12/27 11:15:28;;;;;;;;;;;;;;;17.07;48.27;101095.78;5097650;28;1082;-53
2022/12/27 11:17:55;;;;;;;;;;;;;;;18.20;47.47;101090.47;5096303;28;1024;-51
2022/12/27 11:20:33;;;;;;;;;;;;;;;17.40;48.49;101080.78;5097209;28;1058;-54
2022/12/27 11:23:00;;;;;;;;;;;;;;;18.79;46.01;101086.19;5095704;28;1144;-53
2022/12/27 11:25:26;;;;;;;;;;;;;;;18.66;46.23;101078.53;5097130;28;891;-54
2022/12/27 11:27:53;;;;;;;;;;;;;;;17.57;47.81;101069.53;5095577;28;1980;-53
2022/12/27 11:30:22;;;;;;;;;;;;;;;17.24;47.62;101077.16;5097525;28;1082;-51
2022/12/27 11:32:48;;;;;;;;;;;;;;;17.94;47.67;101067.66;5095313;28;1077;-53
2022/12/27 11:35:15;;;;;;;;;;;;;;;17.18;48.21;101066.41;5095828;28;1131;-50
2022/12/27 11:37:43;;;;;;;;;;;;;;;17.10;47.65;101060.34;5096512;28;1129;-53
2022/12/27 11:40:16;;;;;;;;;;;;;;;17.68;47.95;101062.09;5096459;28;1204;-53
2022/12/27 11:42:42;;;;;;;;;;;;;;;17.90;48.12;101056.31;5093827;28;2507;-52
2022/12/27 11:45:12;;;;;;;;;;;;;;;19.55;44.49;101061.28;5095084;28;1150;-52
2022/12/27 11:47:52;;;;;;;;;;;;;;;17.88;47.66;101046.69;5096603;28;1906;-50
2022/12/27 11:50:20;;;;;;;;;;;;;;;17.43;47.78;101050.00;5096830;28;1138;-52
2022/12/27 11:52:53;;;;;;;;;;;;;;;17.20;47.44;101061.47;5095288;28;990;-53
2022/12/27 11:55:42;;;;;;;;;;;;;;;17.05;47.18;101046.59;5095337;28;1058;-51
2022/12/27 11:58:27;;;;;;;;;;;;;;;18.03;47.49;101059.66;5095261;28;1047;-52
2022/12/27 12:00:55;;;;;;;;;;;;;;;17.24;47.84;101051.59;5095973;28;1158;-51
2022/12/27 12:03:39;;;;;;;;;;;;;;;18.78;46.31;101043.22;5095270;28;1070;-53
2022/12/27 12:06:07;;;;;;;;;;;;;;;17.71;48.07;101050.56;5095870;28;1194;-52
2022/12/27 12:08:32;;;;;;;;;;;;;;;17.28;48.07;101047.22;5095957;28;1984;-51
2022/12/27 12:11:16;;;;;;;;;;;;;;;17.37;48.55;101053.81;5096455;28;1087;-50
2022/12/27 12:13:49;;;;;;;;;;;;;;;17.39;48.60;101040.63;5093640;28;2526;-52
2022/12/27 12:16:33;;;;;;;;;;;;;;;17.05;48.19;101032.84;5095332;28;1198;-51
2022/12/27 12:19:11;;;;;;;;;;;;;;;17.96;47.90;101037.91;5096018;28;1022;-52
2022/12/27 12:21:55;;;;;;;;;;;;;;;17.24;48.45;101032.38;5095793;28;1081;-52
2022/12/27 12:24:30;;;;;;;;;;;;;;;19.13;45.43;101035.91;5095250;28;1098;-53
2022/12/27 12:27:11;;;;;;;;;;;;;;;17.65;48.30;101037.91;5095998;28;1906;-52
2022/12/27 12:29:36;;;;;;;;;;;;;;;17.21;47.94;101036.47;5096256;28;1205;-52
2022/12/27 12:32:10;;;;;;;;;;;;;;;17.03;47.75;101031.50;5095962;28;1015;-48
2022/12/27 12:34:55;;;;;;;;;;;;;;;17.63;48.21;101040.13;5079511;28;1229;-51
2022/12/27 12:37:21;;;;;;;;;;;;;;;17.03;48.37;101043.28;5048123;28;1169;-51
2022/12/27 12:39:57;;;;;;;;;;;;;;;16.96;47.45;101045.47;5096742;28;1213;-51
2022/12/27 12:42:41;;;;;;;;;;;;;;;17.65;47.99;101062.66;5092656;28;1840;-51
2022/12/27 12:45:16;;;;;;;;;;;;;;;17.15;48.45;101064.22;5094688;28;1244;-53
2022/12/27 12:47:44;;;;;;;;;;;;;;;18.94;46.18;101068.81;5094337;28;1974;-51
2022/12/27 12:50:21;;;;;;;;;;;;;;;18.45;47.30;101062.06;5091343;28;1256;-52
2022/12/27 12:52:54;;;;;;;;;;;;;;;17.52;48.06;101071.44;5094256;28;1326;-51
2022/12/27 12:55:23;;;;;;;;;;;;;;;17.53;48.59;101086.81;5094630;28;1189;-48
2022/12/27 12:58:21;;;;;;;;;;;;;;;17.62;48.47;101077.75;5095453;28;1295;-46
2022/12/27 13:00:46;;;;;;;;;;;;;;;17.99;48.37;101084.13;5047747;28;1337;-45
2022/12/27 13:03:20;;;;;;;;;;;;;;;18.50;47.10;101074.19;5094943;28;1346;-49
2022/12/27 13:06:05;;;;;;;;;;;;;;;17.53;48.32;101082.16;5094851;28;1275;-48
2022/12/27 13:08:45;;;;;;;;;;;;;;;17.20;47.80;101086.22;5099436;28;1902;-53
2022/12/27 13:11:11;;;;;;;;;;;;;;;18.33;47.49;101096.50;5099436;28;1334;-51
2022/12/27 13:13:45;;;;;;;;;;;;;;;17.34;48.70;101092.84;5099055;28;1964;-49
2022/12/27 13:16:11;;;;;;;;;;;;;;;18.10;48.13;101099.56;5099435;28;1303;-47
2022/12/27 13:18:36;;;;;;;;;;;;;;;18.22;47.69;101095.69;5099313;28;1394;-48
2022/12/27 13:21:02;;;;;;;;;;;;;;;17.51;48.28;101103.59;5098997;28;1280;-46
2022/12/27 13:23:41;;;;;;;;;;;;;;;17.26;47.57;101107.09;5099045;28;1296;-47
2022/12/27 13:26:24;;;;;;;;;;;;;;;18.36;47.62;101110.53;5095572;28;1276;-45
2022/12/27 13:29:02;;;;;;;;;;;;;;;17.36;48.33;101115.41;5096748;28;1909;-46
2022/12/27 13:31:51;;;;;;;;;;;;;;;17.10;47.93;101104.31;5096956;28;1303;-50
2022/12/27 13:34:19;;;;;;;;;;;;;;;17.79;48.50;101112.44;5078748;28;1241;-48
2022/12/27 13:36:45;;;;;;;;;;;;;;;17.53;49.02;101103.31;5096108;28;1249;-48
2022/12/27 13:39:22;;;;;;;;;;;;;;;19.38;45.33;101103.06;5098335;28;1346;-47
2022/12/27 13:41:51;;;;;;;;;;;;;;;17.83;48.17;101112.72;5096315;28;2274;-48
2022/12/27 13:44:22;;;;;;;;;;;;;;;17.41;47.88;101104.41;5099141;28;1374;-48
2022/12/27 13:46:57;;;;;;;;;;;;;;;17.23;47.24;101118.66;5098588;28;1922;-50
2022/12/27 13:49:40;;;;;;;;;;;;;;;17.69;48.33;101110.50;5098455;28;1457;-43
2022/12/27 13:52:32;;;;;;;;;;;;;;;17.19;48.27;101112.84;5097301;28;1332;-47
2022/12/27 13:55:16;;;;;;;;;;;;;;;18.22;47.83;101118.53;5082249;28;1300;-49
2022/12/27 13:57:50;;;;;;;;;;;;;;;17.21;48.95;101123.59;5098742;28;1268;-52
2022/12/27 14:00:16;;;;;;;;;;;;;;;18.94;46.62;101118.44;5098487;28;1292;-46
2022/12/27 14:02:56;;;;;;;;;;;;;;;18.21;47.53;101118.81;5097755;28;1307;-49
2022/12/27 14:05:35;;;;;;;;;;;;;;;17.43;48.11;101121.47;5097068;28;1284;-47
2022/12/27 14:08:10;;;;;;;;;;;;;;;17.28;48.37;101126.91;5096783;28;1992;-47
2022/12/27 14:10:43;;;;;;;;;;;;;;;17.64;48.69;101128.94;5098314;28;1339;-48
2022/12/27 14:13:09;;;;;;;;;;;;;;;17.14;48.27;101126.59;5096213;28;2365;-45
2022/12/27 14:15:53;;;;;;;;;;;;;;;18.69;47.02;101132.22;5098066;28;1367;-47
2022/12/27 14:18:23;;;;;;;;;;;;;;;17.42;48.86;101139.06;5097367;28;1252;-49
2022/12/27 14:20:57;;;;;;;;;;;;;;;17.17;47.91;101133.47;5096826;28;1351;-49
2022/12/27 14:23:38;;;;;;;;;;;;;;;17.87;48.51;101133.91;5096663;28;1371;-50
2022/12/27 14:26:22;;;;;;;;;;;;;;;17.31;48.19;101137.38;5096423;28;1392;-50
2022/12/27 14:29:06;;;;;;;;;;;;;;;16.90;47.91;101142.66;5096310;28;1987;-50